Time;durP1;ratioP1;P1;durP2;ratioP2;P2;SDS_P1;SDS_P2;PMS_P1;PMS_P2;Temp;Humidity;BMP_temperature;BMP_pressure;BME280_temperature;BME280_humidity;BME280_pressure;Samples;Min_cycle;Max_cycle;Signal;HPM_P1;HPM_P2
2022/08/01 00:00:14;;;;;;;2.42;1.52;;;;;;;;;;5073653;28;20384;-81
2022/08/01 00:02:40;;;;;;;2.40;1.80;;;;;;;;;;5073602;28;20383;-81
2022/08/01 00:05:07;;;;;;;4.53;2.20;;;;;;;;;;5073607;28;20376;-81
2022/08/01 00:07:33;;;;;;;2.45;1.95;;;;;;;;;;5064002;28;20379;-81
2022/08/01 00:09:59;;;;;;;2.60;1.90;;;;;;;;;;5061384;28;20577;-81
2022/08/01 00:12:25;;;;;;;2.25;1.70;;;;;;;;;;5073388;28;20911;-81
2022/08/01 00:14:51;;;;;;;3.70;2.15;;;;;;;;;;5073313;28;20434;-82
2022/08/01 00:17:17;;;;;;;3.23;1.93;;;;;;;;;;5073168;28;20761;-81
2022/08/01 00:19:43;;;;;;;4.47;1.90;;;;;;;;;;5071956;28;20383;-82
2022/08/01 00:22:09;;;;;;;7.20;2.08;;;;;;;;;;5073113;28;20470;-81
2022/08/01 00:24:35;;;;;;;3.45;1.50;;;;;;;;;;5067129;28;20379;-81
2022/08/01 00:27:01;;;;;;;3.17;1.80;;;;;;;;;;5071164;28;20455;-81
2022/08/01 00:29:27;;;;;;;3.08;1.80;;;;;;;;;;5071062;28;20488;-81
2022/08/01 00:31:53;;;;;;;2.72;1.60;;;;;;;;;;5071142;28;20376;-81
2022/08/01 00:34:19;;;;;;;2.10;1.63;;;;;;;;;;5071005;28;20750;-81
2022/08/01 00:36:46;;;;;;;2.60;1.60;;;;;;;;;;5070991;28;20411;-81
2022/08/01 00:39:12;;;;;;;3.58;1.88;;;;;;;;;;5071016;28;20378;-81
2022/08/01 00:41:38;;;;;;;7.10;1.90;;;;;;;;;;5071649;28;20372;-81
2022/08/01 00:44:05;;;;;;;4.75;1.70;;;;;;;;;;5072799;28;20384;-81
2022/08/01 00:46:31;;;;;;;1.42;1.30;;;;;;;;;;5072595;28;20383;-81
2022/08/01 00:48:57;;;;;;;2.47;1.80;;;;;;;;;;5072739;28;20376;-81
2022/08/01 00:51:23;;;;;;;2.97;1.75;;;;;;;;;;5071948;28;20376;-81
2022/08/01 00:53:50;;;;;;;1.83;1.73;;;;;;;;;;5059517;28;20936;-81
2022/08/01 00:56:17;;;;;;;2.50;1.85;;;;;;;;;;5072625;28;20399;-81
2022/08/01 00:58:43;;;;;;;4.53;2.08;;;;;;;;;;5067555;28;20405;-81
2022/08/01 01:01:09;;;;;;;1.70;1.60;;;;;;;;;;5057791;28;20380;-81
2022/08/01 01:03:35;;;;;;;3.70;1.77;;;;;;;;;;5071904;28;20390;-81
2022/08/01 01:06:08;;;;;;;3.65;1.88;;;;;;;;;;5072377;28;20384;-81
2022/08/01 01:08:42;;;;;;;3.35;2.10;;;;;;;;;;5070347;28;20372;-81
2022/08/01 01:11:11;;;;;;;3.17;2.23;;;;;;;;;;5061737;28;20408;-81
2022/08/01 01:13:39;;;;;;;3.90;2.00;;;;;;;;;;5072305;28;20368;-81
2022/08/01 01:16:09;;;;;;;2.72;1.90;;;;;;;;;;5072139;28;20494;-81
2022/08/01 01:18:43;;;;;;;5.10;2.10;;;;;;;;;;5072358;28;20415;-81
2022/08/01 01:21:18;;;;;;;4.83;2.00;;;;;;;;;;5072254;28;20416;-81
2022/08/01 01:23:54;;;;;;;3.90;2.20;;;;;;;;;;5072334;28;20380;-81
2022/08/01 01:26:38;;;;;;;4.72;2.50;;;;;;;;;;5071938;28;20463;-81
2022/08/01 01:29:18;;;;;;;3.60;2.10;;;;;;;;;;5051554;28;20381;-81
2022/08/01 01:31:46;;;;;;;2.83;2.10;;;;;;;;;;5043589;28;20390;-81
2022/08/01 01:34:13;;;;;;;2.60;2.23;;;;;;;;;;5065513;28;20454;-81
2022/08/01 01:36:40;;;;;;;3.20;2.10;;;;;;;;;;5071800;28;20408;-81
2022/08/01 01:39:07;;;;;;;4.40;2.13;;;;;;;;;;5072113;28;20380;-81
2022/08/01 01:41:33;;;;;;;3.67;2.08;;;;;;;;;;5072023;28;20849;-81
2022/08/01 01:44:01;;;;;;;4.30;2.10;;;;;;;;;;5058864;28;20802;-81
2022/08/01 01:46:29;;;;;;;2.55;2.28;;;;;;;;;;5071879;28;20422;-82
2022/08/01 01:48:56;;;;;;;3.13;2.10;;;;;;;;;;5071986;28;20737;-80
2022/08/01 01:51:23;;;;;;;4.80;2.42;;;;;;;;;;5071962;28;20450;-81
2022/08/01 01:53:50;;;;;;;3.08;2.17;;;;;;;;;;5071963;28;20406;-81
2022/08/01 01:56:16;;;;;;;4.15;2.20;;;;;;;;;;5071847;28;20894;-81
2022/08/01 01:58:43;;;;;;;6.07;2.47;;;;;;;;;;5071871;28;20383;-81
2022/08/01 02:01:11;;;;;;;3.83;2.20;;;;;;;;;;5066575;28;20429;-81
2022/08/01 02:03:37;;;;;;;2.63;2.28;;;;;;;;;;5069383;28;20895;-81
2022/08/01 02:06:04;;;;;;;4.68;2.20;;;;;;;;;;5052993;28;20380;-81
2022/08/01 02:08:31;;;;;;;3.33;2.40;;;;;;;;;;5071767;28;20395;-81
2022/08/01 02:13:42;;;;;;;3.33;2.43;;;;;;;;;;5067582;28;20445;-81
2022/08/01 02:16:11;;;;;;;3.03;2.38;;;;;;;;;;5073317;28;20408;-81
2022/08/01 02:18:38;;;;;;;4.20;2.42;;;;;;;;;;5055620;28;20413;-81
2022/08/01 02:21:05;;;;;;;4.70;2.30;;;;;;;;;;5046665;28;20741;-82
2022/08/01 02:23:36;;;;;;;3.43;2.37;;;;;;;;;;5073760;28;20375;-82
2022/08/01 02:26:07;;;;;;;3.47;2.30;;;;;;;;;;5075004;28;20807;-82
2022/08/01 02:28:36;;;;;;;3.40;2.35;;;;;;;;;;5075574;28;20384;-82
2022/08/01 02:31:09;;;;;;;4.35;2.45;;;;;;;;;;5075289;28;20375;-82
2022/08/01 02:33:37;;;;;;;2.83;2.20;;;;;;;;;;5074592;28;20459;-82
2022/08/01 02:36:03;;;;;;;3.10;2.40;;;;;;;;;;5074937;28;20411;-82
2022/08/01 02:38:31;;;;;;;2.40;2.20;;;;;;;;;;5075281;28;20407;-82
2022/08/01 02:40:59;;;;;;;4.40;2.30;;;;;;;;;;5075256;28;20371;-82
2022/08/01 02:43:25;;;;;;;3.08;2.13;;;;;;;;;;5075059;28;20376;-82
2022/08/01 02:45:54;;;;;;;3.63;2.22;;;;;;;;;;5074977;28;20379;-82
2022/08/01 02:48:21;;;;;;;3.38;2.08;;;;;;;;;;5075013;28;20415;-82
2022/08/01 02:50:49;;;;;;;3.08;2.45;;;;;;;;;;5075343;28;20384;-82
2022/08/01 02:53:15;;;;;;;2.70;2.20;;;;;;;;;;5074886;28;20430;-82
2022/08/01 02:55:42;;;;;;;3.63;2.60;;;;;;;;;;5066853;28;20425;-82
2022/08/01 02:58:10;;;;;;;3.10;2.60;;;;;;;;;;5069336;28;20388;-82
2022/08/01 03:00:36;;;;;;;3.00;2.40;;;;;;;;;;5074796;28;20410;-82
2022/08/01 03:03:04;;;;;;;2.95;2.00;;;;;;;;;;5062184;28;20373;-82
2022/08/01 03:05:32;;;;;;;3.43;2.10;;;;;;;;;;5059625;28;20376;-82
2022/08/01 03:07:59;;;;;;;3.17;2.28;;;;;;;;;;5074610;28;20376;-82
2022/08/01 03:10:27;;;;;;;2.72;2.05;;;;;;;;;;5074606;28;20394;-82
2022/08/01 03:12:54;;;;;;;2.33;2.07;;;;;;;;;;5074925;28;20414;-82
2022/08/01 03:15:21;;;;;;;3.03;2.00;;;;;;;;;;5074536;28;21218;-82
2022/08/01 03:17:48;;;;;;;2.97;2.05;;;;;;;;;;5074316;28;20486;-82
2022/08/01 03:20:15;;;;;;;2.70;2.27;;;;;;;;;;5064212;28;20386;-82
2022/08/01 03:22:42;;;;;;;2.13;1.98;;;;;;;;;;5070967;28;20387;-82
2022/08/01 03:25:09;;;;;;;2.20;2.00;;;;;;;;;;5064664;28;21035;-82
2022/08/01 03:27:37;;;;;;;2.85;2.17;;;;;;;;;;5073897;28;20514;-82
2022/08/01 03:30:04;;;;;;;2.27;2.07;;;;;;;;;;5068201;28;20468;-82
2022/08/01 03:32:31;;;;;;;2.50;2.28;;;;;;;;;;5062810;28;20514;-82
2022/08/01 03:34:57;;;;;;;2.60;2.10;;;;;;;;;;5069457;28;20451;-81
2022/08/01 03:37:26;;;;;;;2.80;2.15;;;;;;;;;;5061843;28;20464;-82
2022/08/01 03:39:58;;;;;;;2.88;2.10;;;;;;;;;;5068302;28;20708;-82
2022/08/01 03:42:28;;;;;;;2.57;2.00;;;;;;;;;;5064559;28;20375;-82
2022/08/01 03:44:57;;;;;;;4.10;2.40;;;;;;;;;;5073365;28;20368;-82
2022/08/01 03:47:26;;;;;;;2.67;2.17;;;;;;;;;;5073912;28;20787;-82
2022/08/01 03:49:53;;;;;;;2.40;2.20;;;;;;;;;;5073905;28;20386;-82
2022/08/01 03:52:19;;;;;;;2.03;1.92;;;;;;;;;;5073924;28;20380;-82
2022/08/01 03:54:47;;;;;;;2.30;2.05;;;;;;;;;;5071642;28;20376;-82
2022/08/01 03:57:14;;;;;;;3.13;2.10;;;;;;;;;;5062116;28;20407;-82
2022/08/01 03:59:41;;;;;;;2.50;2.30;;;;;;;;;;5073686;28;20872;-82
2022/08/01 04:02:07;;;;;;;2.92;2.08;;;;;;;;;;5067859;28;20382;-82
2022/08/01 04:04:34;;;;;;;1.97;1.80;;;;;;;;;;5053492;28;20464;-81
2022/08/01 04:07:06;;;;;;;2.75;1.90;;;;;;;;;;5072260;28;20376;-81
2022/08/01 04:09:32;;;;;;;2.38;1.77;;;;;;;;;;5073597;28;20407;-81
2022/08/01 04:12:01;;;;;;;3.38;1.98;;;;;;;;;;5070237;28;20432;-82
2022/08/01 04:14:28;;;;;;;1.70;1.60;;;;;;;;;;5052922;28;20413;-81
2022/08/01 04:16:54;;;;;;;2.13;1.93;;;;;;;;;;5049552;28;20483;-81
2022/08/01 04:19:20;;;;;;;1.92;1.73;;;;;;;;;;5068857;28;20384;-81
2022/08/01 04:21:46;;;;;;;2.08;1.80;;;;;;;;;;5054255;28;20385;-81
2022/08/01 04:24:14;;;;;;;1.80;1.70;;;;;;;;;;5072428;28;20387;-82
2022/08/01 04:26:40;;;;;;;1.88;1.77;;;;;;;;;;5072648;28;20380;-81
2022/08/01 04:29:07;;;;;;;2.17;1.70;;;;;;;;;;5072506;28;20388;-81
2022/08/01 04:31:34;;;;;;;2.00;1.80;;;;;;;;;;5073103;28;20459;-81
2022/08/01 04:34:01;;;;;;;2.45;1.75;;;;;;;;;;5072915;28;20407;-81
2022/08/01 04:36:27;;;;;;;2.95;1.90;;;;;;;;;;5072514;28;20411;-81
2022/08/01 04:38:56;;;;;;;1.98;1.65;;;;;;;;;;5073285;28;20927;-82
2022/08/01 04:41:22;;;;;;;1.77;1.67;;;;;;;;;;5046057;28;20452;-81
2022/08/01 04:43:50;;;;;;;3.00;1.73;;;;;;;;;;5072812;28;20411;-81
2022/08/01 04:46:17;;;;;;;4.88;1.80;;;;;;;;;;5072679;28;20383;-81
2022/08/01 04:48:44;;;;;;;2.83;2.00;;;;;;;;;;5072920;28;20495;-81
2022/08/01 04:51:17;;;;;;;2.70;2.37;;;;;;;;;;5058647;28;20771;-80
2022/08/01 04:53:43;;;;;;;2.10;1.90;;;;;;;;;;5072659;28;20910;-81
2022/08/01 04:56:12;;;;;;;2.03;1.83;;;;;;;;;;5072495;28;20419;-81
2022/08/01 04:58:38;;;;;;;2.28;1.50;;;;;;;;;;5072645;28;20379;-81
2022/08/01 05:01:04;;;;;;;2.10;1.60;;;;;;;;;;5072523;28;20372;-81
2022/08/01 05:03:30;;;;;;;2.27;2.07;;;;;;;;;;5072569;28;20961;-81
2022/08/01 05:05:56;;;;;;;2.63;1.92;;;;;;;;;;5071167;28;20406;-81
2022/08/01 05:08:22;;;;;;;2.25;1.80;;;;;;;;;;5053272;28;20374;-81
2022/08/01 05:10:48;;;;;;;2.50;1.90;;;;;;;;;;5056400;28;20412;-81
2022/08/01 05:13:15;;;;;;;3.05;1.80;;;;;;;;;;5060578;28;20412;-81
2022/08/01 05:15:41;;;;;;;2.35;1.75;;;;;;;;;;5072307;28;20430;-81
2022/08/01 05:18:07;;;;;;;3.17;1.92;;;;;;;;;;5071613;28;20433;-83
2022/08/01 05:20:33;;;;;;;2.45;2.00;;;;;;;;;;5067929;28;20386;-82
2022/08/01 05:22:59;;;;;;;3.13;2.20;;;;;;;;;;5057376;28;20389;-82
2022/08/01 05:25:25;;;;;;;1.98;1.77;;;;;;;;;;5052252;28;20447;-82
2022/08/01 05:27:51;;;;;;;2.50;2.00;;;;;;;;;;5052612;28;20381;-82
2022/08/01 05:30:18;;;;;;;2.15;1.83;;;;;;;;;;5069329;28;20387;-82
2022/08/01 05:32:44;;;;;;;1.98;1.88;;;;;;;;;;5072131;28;20376;-82
2022/08/01 05:35:10;;;;;;;2.80;2.30;;;;;;;;;;5072203;28;20379;-82
2022/08/01 05:37:36;;;;;;;2.60;2.40;;;;;;;;;;5071879;28;20407;-81
2022/08/01 05:40:02;;;;;;;2.05;1.95;;;;;;;;;;5072150;28;20378;-82
2022/08/01 05:42:28;;;;;;;2.00;1.90;;;;;;;;;;5054545;28;20377;-82
2022/08/01 05:44:54;;;;;;;2.60;1.92;;;;;;;;;;5048356;28;20385;-82
2022/08/01 05:47:20;;;;;;;3.00;2.28;;;;;;;;;;5052305;28;20386;-82
2022/08/01 05:49:46;;;;;;;2.30;2.10;;;;;;;;;;5057486;28;20385;-81
2022/08/01 05:52:12;;;;;;;1.90;1.80;;;;;;;;;;5056624;28;20381;-82
2022/08/01 05:54:38;;;;;;;2.47;1.90;;;;;;;;;;5055622;28;20385;-82
2022/08/01 05:57:04;;;;;;;2.47;1.80;;;;;;;;;;5055714;28;20492;-82
2022/08/01 05:59:30;;;;;;;2.07;1.87;;;;;;;;;;5071772;28;20488;-82
2022/08/01 06:01:56;;;;;;;2.13;1.92;;;;;;;;;;5076362;28;20380;-81
2022/08/01 06:04:22;;;;;;;2.63;1.90;;;;;;;;;;5075976;28;20403;-82
2022/08/01 06:06:49;;;;;;;2.17;1.80;;;;;;;;;;5075794;28;20500;-82
2022/08/01 06:09:15;;;;;;;2.90;1.90;;;;;;;;;;5062028;28;20392;-82
2022/08/01 06:11:41;;;;;;;3.08;2.03;;;;;;;;;;5073744;28;20384;-82
2022/08/01 06:14:07;;;;;;;2.50;2.00;;;;;;;;;;5075756;28;20394;-82
2022/08/01 06:16:33;;;;;;;2.13;1.98;;;;;;;;;;5075416;28;20407;-81
2022/08/01 06:18:59;;;;;;;2.37;1.80;;;;;;;;;;5075551;28;20429;-82
2022/08/01 06:21:25;;;;;;;3.20;2.65;;;;;;;;;;5075517;28;20379;-81
2022/08/01 06:23:51;;;;;;;2.28;2.08;;;;;;;;;;5069426;28;20788;-82
2022/08/01 06:26:18;;;;;;;3.50;3.15;;;;;;;;;;5052946;28;20393;-81
2022/08/01 06:28:44;;;;;;;4.90;4.05;;;;;;;;;;5052400;28;20476;-81
2022/08/01 06:31:12;;;;;;;6.68;4.75;;;;;;;;;;5055488;28;20485;-81
2022/08/01 06:33:38;;;;;;;7.68;6.35;;;;;;;;;;5054083;28;20450;-82
2022/08/01 06:36:04;;;;;;;10.40;6.18;;;;;;;;;;5058188;28;20504;-81
2022/08/01 06:38:30;;;;;;;12.75;7.07;;;;;;;;;;5055708;28;20793;-81
2022/08/01 06:40:58;;;;;;;13.77;8.05;;;;;;;;;;5072448;28;20403;-82
2022/08/01 06:43:24;;;;;;;11.73;7.90;;;;;;;;;;5062594;28;20466;-82
2022/08/01 06:45:50;;;;;;;9.10;7.45;;;;;;;;;;5069348;28;20466;-81
2022/08/01 06:48:16;;;;;;;9.52;6.45;;;;;;;;;;5059306;28;20397;-81
2022/08/01 06:50:42;;;;;;;7.35;6.22;;;;;;;;;;5068166;28;20445;-81
2022/08/01 06:53:08;;;;;;;6.70;5.23;;;;;;;;;;5074781;28;20452;-80
2022/08/01 06:55:34;;;;;;;6.70;5.20;;;;;;;;;;5074815;28;20379;-81
2022/08/01 06:58:00;;;;;;;6.60;4.55;;;;;;;;;;5073358;28;20410;-80
2022/08/01 07:00:27;;;;;;;6.25;4.43;;;;;;;;;;5065073;28;20395;-80
2022/08/01 07:02:54;;;;;;;3.90;3.50;;;;;;;;;;5067483;28;20456;-81
2022/08/01 07:05:20;;;;;;;6.20;3.80;;;;;;;;;;5075004;28;20841;-80
2022/08/01 07:07:46;;;;;;;4.78;3.75;;;;;;;;;;5074585;28;20376;-78
2022/08/01 07:10:13;;;;;;;3.78;3.47;;;;;;;;;;5074580;28;20924;-81
2022/08/01 07:12:40;;;;;;;4.78;3.75;;;;;;;;;;5065136;28;20874;-81
2022/08/01 07:15:07;;;;;;;4.68;4.00;;;;;;;;;;5072580;28;20395;-80
2022/08/01 07:17:36;;;;;;;4.72;3.72;;;;;;;;;;5063443;28;20401;-81
2022/08/01 07:20:02;;;;;;;4.50;3.88;;;;;;;;;;5071010;28;20467;-81
2022/08/01 07:22:28;;;;;;;4.68;3.35;;;;;;;;;;5074461;28;20380;-81
2022/08/01 07:24:54;;;;;;;3.85;3.40;;;;;;;;;;5074292;28;20383;-81
2022/08/01 07:27:21;;;;;;;5.38;3.40;;;;;;;;;;5074290;28;20873;-81
2022/08/01 07:29:46;;;;;;;6.18;3.72;;;;;;;;;;5074167;28;20474;-81
2022/08/01 07:32:12;;;;;;;3.63;3.30;;;;;;;;;;5074163;28;20438;-81
2022/08/01 07:34:38;;;;;;;6.00;3.53;;;;;;;;;;5074212;28;20384;-82
2022/08/01 07:37:04;;;;;;;5.30;4.45;;;;;;;;;;5073875;28;20772;-82
2022/08/01 07:39:30;;;;;;;5.43;4.20;;;;;;;;;;5074098;28;20393;-82
2022/08/01 07:41:57;;;;;;;4.32;3.42;;;;;;;;;;5072763;28;20395;-82
2022/08/01 07:44:23;;;;;;;5.07;3.70;;;;;;;;;;5060524;28;20411;-82
2022/08/01 07:46:49;;;;;;;5.43;4.27;;;;;;;;;;5073901;28;20497;-79
2022/08/01 07:49:15;;;;;;;6.23;5.10;;;;;;;;;;5073868;28;20718;-82
2022/08/01 07:51:41;;;;;;;7.55;4.65;;;;;;;;;;5073784;28;20403;-82
2022/08/01 07:54:07;;;;;;;7.72;5.03;;;;;;;;;;5073985;28;20433;-82
2022/08/01 07:56:33;;;;;;;6.18;5.57;;;;;;;;;;5054692;28;20409;-82
2022/08/01 07:58:59;;;;;;;7.28;6.25;;;;;;;;;;5053349;28;20388;-82
2022/08/01 08:01:26;;;;;;;4.82;4.38;;;;;;;;;;5065053;28;20376;-82
2022/08/01 08:03:52;;;;;;;5.45;4.53;;;;;;;;;;5070989;28;20868;-82
2022/08/01 08:06:18;;;;;;;6.35;5.15;;;;;;;;;;5067442;28;20944;-80
2022/08/01 08:08:44;;;;;;;6.00;5.18;;;;;;;;;;5061122;28;20408;-79
2022/08/01 08:11:10;;;;;;;5.97;4.73;;;;;;;;;;5072968;28;20419;-81
2022/08/01 08:13:36;;;;;;;5.35;4.85;;;;;;;;;;5073249;28;20414;-81
2022/08/01 08:16:02;;;;;;;6.03;5.40;;;;;;;;;;5073191;28;20387;-80
2022/08/01 08:18:28;;;;;;;5.45;4.20;;;;;;;;;;5067427;28;20538;-80
2022/08/01 08:20:54;;;;;;;5.30;4.10;;;;;;;;;;5071691;28;20462;-81
2022/08/01 08:26:05;;;;;;;4.95;3.35;;;;;;;;;;5073061;28;20776;-81
2022/08/01 08:28:31;;;;;;;3.80;3.42;;;;;;;;;;5073020;28;20811;-81
2022/08/01 08:30:57;;;;;;;3.65;3.10;;;;;;;;;;5073095;28;20390;-81
2022/08/01 08:33:23;;;;;;;5.13;4.32;;;;;;;;;;5062019;28;20386;-81
2022/08/01 08:35:49;;;;;;;7.03;4.13;;;;;;;;;;5055114;28;20455;-80
2022/08/01 08:38:15;;;;;;;7.38;3.92;;;;;;;;;;5070896;28;20395;-80
2022/08/01 08:40:42;;;;;;;5.50;3.53;;;;;;;;;;5069455;28;20812;-80
2022/08/01 08:43:08;;;;;;;4.80;3.60;;;;;;;;;;5070985;28;20741;-80
2022/08/01 08:45:34;;;;;;;6.10;3.80;;;;;;;;;;5070981;28;20372;-80
2022/08/01 08:48:01;;;;;;;4.60;3.20;;;;;;;;;;5070918;28;20391;-80
2022/08/01 08:50:27;;;;;;;4.78;3.13;;;;;;;;;;5071540;28;20376;-80
2022/08/01 08:52:54;;;;;;;3.90;2.80;;;;;;;;;;5069051;28;20393;-80
2022/08/01 08:55:20;;;;;;;2.65;2.42;;;;;;;;;;5061896;28;20953;-80
2022/08/01 08:57:46;;;;;;;2.40;2.20;;;;;;;;;;5059050;28;20445;-80
2022/08/01 09:00:13;;;;;;;2.60;2.30;;;;;;;;;;5070228;28;20868;-80
2022/08/01 09:02:43;;;;;;;2.20;2.00;;;;;;;;;;5072263;28;20384;-80
2022/08/01 09:05:10;;;;;;;2.85;2.20;;;;;;;;;;5044523;28;20722;-80
2022/08/01 09:07:36;;;;;;;2.50;2.30;;;;;;;;;;5072518;28;20380;-80
2022/08/01 09:10:02;;;;;;;2.80;2.00;;;;;;;;;;5072326;28;20384;-80
2022/08/01 09:12:28;;;;;;;2.53;2.00;;;;;;;;;;5067593;28;20388;-80
2022/08/01 09:14:54;;;;;;;2.42;2.22;;;;;;;;;;5068631;28;20387;-81
2022/08/01 09:17:20;;;;;;;1.88;1.77;;;;;;;;;;5072362;28;20399;-80
2022/08/01 09:19:54;;;;;;;2.45;2.10;;;;;;;;;;5072175;28;20741;-80
2022/08/01 09:22:23;;;;;;;1.80;1.70;;;;;;;;;;5071928;28;20372;-80
2022/08/01 09:25:06;;;;;;;1.75;1.65;;;;;;;;;;5071836;28;20371;-80
2022/08/01 09:27:33;;;;;;;1.80;1.70;;;;;;;;;;5072226;28;20425;-80
2022/08/01 09:30:28;;;;;;;2.25;1.85;;;;;;;;;;5072233;28;20394;-80
2022/08/01 09:32:55;;;;;;;2.70;1.80;;;;;;;;;;5052775;28;20928;-80
2022/08/01 09:35:25;;;;;;;2.40;1.80;;;;;;;;;;5065303;28;20380;-81
2022/08/01 09:37:51;;;;;;;2.25;2.05;;;;;;;;;;5057870;28;20482;-81
2022/08/01 09:40:17;;;;;;;2.10;1.90;;;;;;;;;;5072287;28;20383;-80
2022/08/01 09:42:48;;;;;;;2.08;1.63;;;;;;;;;;5072041;28;20372;-80
2022/08/01 09:45:34;;;;;;;2.30;1.88;;;;;;;;;;5069174;28;20864;-79
2022/08/01 09:48:07;;;;;;;2.53;1.75;;;;;;;;;;5066746;28;20712;-79
2022/08/01 09:50:40;;;;;;;2.00;1.80;;;;;;;;;;5062156;28;20432;-78
2022/08/01 09:53:06;;;;;;;1.50;1.40;;;;;;;;;;5054232;28;20385;-78
2022/08/01 09:55:32;;;;;;;1.93;1.23;;;;;;;;;;5053197;28;20400;-80
2022/08/01 09:58:00;;;;;;;1.40;1.30;;;;;;;;;;5064116;28;20917;-79
2022/08/01 10:00:26;;;;;;;1.30;1.20;;;;;;;;;;5067510;28;20383;-80
2022/08/01 10:02:52;;;;;;;1.40;1.10;;;;;;;;;;5071857;28;20881;-80
2022/08/01 10:05:30;;;;;;;1.33;1.23;;;;;;;;;;5071911;28;20852;-80
2022/08/01 10:07:57;;;;;;;1.15;1.05;;;;;;;;;;5070448;28;20383;-81
2022/08/01 10:10:23;;;;;;;2.40;1.40;;;;;;;;;;5066183;28;20397;-80
2022/08/01 10:12:51;;;;;;;1.45;1.30;;;;;;;;;;5065127;28;20383;-80
2022/08/01 10:15:17;;;;;;;2.28;1.60;;;;;;;;;;5051802;28;20785;-81
2022/08/01 10:17:47;;;;;;;2.20;1.92;;;;;;;;;;5051111;28;20898;-81
2022/08/01 10:20:13;;;;;;;2.10;1.30;;;;;;;;;;5050271;28;20962;-81
2022/08/01 10:22:40;;;;;;;1.63;1.38;;;;;;;;;;5054056;28;20509;-81
2022/08/01 10:25:07;;;;;;;1.20;1.10;;;;;;;;;;5055549;28;20465;-81
2022/08/01 10:27:35;;;;;;;1.30;1.20;;;;;;;;;;5066946;28;20393;-81
2022/08/01 10:30:05;;;;;;;2.40;1.50;;;;;;;;;;5053358;28;20386;-81
2022/08/01 10:32:31;;;;;;;3.33;2.08;;;;;;;;;;5046402;28;20462;-81
2022/08/01 10:34:58;;;;;;;2.42;1.52;;;;;;;;;;5073429;28;20403;-81
2022/08/01 10:37:24;;;;;;;1.55;1.45;;;;;;;;;;5062024;28;20427;-81
2022/08/01 10:39:51;;;;;;;2.50;1.20;;;;;;;;;;5056222;28;20373;-82
2022/08/01 10:42:18;;;;;;;1.40;1.10;;;;;;;;;;5055235;28;20885;-81
2022/08/01 10:44:47;;;;;;;1.55;1.20;;;;;;;;;;5054740;28;20377;-82
2022/08/01 10:47:14;;;;;;;1.13;1.00;;;;;;;;;;5056246;28;20381;-82
2022/08/01 10:49:48;;;;;;;1.20;1.10;;;;;;;;;;5057362;28;20620;-80
2022/08/01 10:52:15;;;;;;;1.20;1.10;;;;;;;;;;5055291;28;20374;-80
2022/08/01 10:54:41;;;;;;;1.77;1.00;;;;;;;;;;5068256;28;20791;-80
2022/08/01 10:57:07;;;;;;;1.20;1.10;;;;;;;;;;5074866;28;20407;-81
2022/08/01 10:59:35;;;;;;;1.35;1.10;;;;;;;;;;5055695;28;20382;-81
2022/08/01 11:02:05;;;;;;;1.27;1.10;;;;;;;;;;5074755;28;20416;-81
2022/08/01 11:04:43;;;;;;;1.55;1.20;;;;;;;;;;5074773;28;20376;-81
2022/08/01 11:07:14;;;;;;;1.98;1.20;;;;;;;;;;5072093;28;20752;-81
2022/08/01 11:09:41;;;;;;;2.20;1.10;;;;;;;;;;5055586;28;20442;-81
2022/08/01 11:12:09;;;;;;;0.98;0.85;;;;;;;;;;5063372;28;20374;-80
2022/08/01 11:14:55;;;;;;;1.20;0.90;;;;;;;;;;5068476;28;20404;-81
2022/08/01 11:17:36;;;;;;;1.77;1.30;;;;;;;;;;5051796;28;20446;-80
2022/08/01 11:20:05;;;;;;;1.55;1.15;;;;;;;;;;5059614;28;20441;-80
2022/08/01 11:22:31;;;;;;;1.70;1.60;;;;;;;;;;5067139;28;20853;-81
2022/08/01 11:24:57;;;;;;;1.48;1.30;;;;;;;;;;5074150;28;20385;-80
2022/08/01 11:27:25;;;;;;;1.23;1.00;;;;;;;;;;5067736;28;20449;-79
2022/08/01 11:30:09;;;;;;;1.10;1.00;;;;;;;;;;5074329;28;20380;-80
2022/08/01 11:32:48;;;;;;;1.10;1.00;;;;;;;;;;5054661;28;20795;-80
2022/08/01 11:35:15;;;;;;;1.30;1.20;;;;;;;;;;5068714;28;20383;-80
2022/08/01 11:37:41;;;;;;;1.55;0.90;;;;;;;;;;5073929;28;20411;-80
2022/08/01 11:40:22;;;;;;;1.77;1.00;;;;;;;;;;5068637;28;20448;-80
2022/08/01 11:42:49;;;;;;;1.33;0.90;;;;;;;;;;5060838;28;20430;-80
2022/08/01 11:45:15;;;;;;;2.20;1.20;;;;;;;;;;5048319;28;20457;-80
2022/08/01 11:47:48;;;;;;;1.88;0.95;;;;;;;;;;5049926;28;20950;-81
2022/08/01 11:50:28;;;;;;;2.65;1.00;;;;;;;;;;5070593;28;20386;-81
2022/08/01 11:53:05;;;;;;;1.20;1.10;;;;;;;;;;5054635;28;20966;-79
2022/08/01 11:55:32;;;;;;;1.05;1.00;;;;;;;;;;5053966;28;20401;-80
2022/08/01 11:58:08;;;;;;;1.38;1.10;;;;;;;;;;5067791;28;20433;-80
2022/08/01 12:00:34;;;;;;;0.90;0.80;;;;;;;;;;5054234;28;20381;-81
2022/08/01 12:03:04;;;;;;;1.50;1.27;;;;;;;;;;5052809;28;20480;-81
2022/08/01 12:05:31;;;;;;;1.27;0.88;;;;;;;;;;5055446;28;20401;-80
2022/08/01 12:07:57;;;;;;;2.10;1.25;;;;;;;;;;5055432;28;20389;-80
2022/08/01 12:10:25;;;;;;;1.75;1.10;;;;;;;;;;5055442;28;20438;-82
2022/08/01 12:12:52;;;;;;;3.30;1.60;;;;;;;;;;5054757;28;20385;-82
2022/08/01 12:15:20;;;;;;;1.20;0.98;;;;;;;;;;5054926;28;20378;-82
2022/08/01 12:17:47;;;;;;;1.40;0.90;;;;;;;;;;5049712;28;20485;-81
2022/08/01 12:20:16;;;;;;;1.20;0.90;;;;;;;;;;5056785;28;20873;-81
2022/08/01 12:22:43;;;;;;;2.97;0.95;;;;;;;;;;5065333;28;20375;-81
2022/08/01 12:25:13;;;;;;;1.38;0.90;;;;;;;;;;5073410;28;20383;-81
2022/08/01 12:27:40;;;;;;;1.33;0.77;;;;;;;;;;5073118;28;20881;-81
2022/08/01 12:30:11;;;;;;;0.60;0.60;;;;;;;;;;5071871;28;20384;-81
2022/08/01 12:32:38;;;;;;;1.33;0.70;;;;;;;;;;5073110;28;20387;-81
2022/08/01 12:35:09;;;;;;;1.23;0.90;;;;;;;;;;5062805;28;20381;-81
2022/08/01 12:37:36;;;;;;;0.88;0.68;;;;;;;;;;5069956;28;20461;-81
2022/08/01 12:40:02;;;;;;;0.82;0.70;;;;;;;;;;5073356;28;20435;-82
2022/08/01 12:42:28;;;;;;;1.17;0.80;;;;;;;;;;5072047;28;20372;-82
2022/08/01 12:44:55;;;;;;;1.87;0.80;;;;;;;;;;5072736;28;20900;-82
2022/08/01 12:47:21;;;;;;;0.60;0.60;;;;;;;;;;5072920;28;20379;-82
2022/08/01 12:49:48;;;;;;;1.10;0.60;;;;;;;;;;5073049;28;20376;-81
2022/08/01 12:52:17;;;;;;;1.20;0.70;;;;;;;;;;5072855;28;20390;-82
2022/08/01 12:55:01;;;;;;;2.70;0.60;;;;;;;;;;5055434;28;20387;-81
2022/08/01 12:57:28;;;;;;;1.65;0.70;;;;;;;;;;5072417;28;20808;-81
2022/08/01 12:59:54;;;;;;;0.88;0.63;;;;;;;;;;5066546;28;20390;-81
2022/08/01 13:02:20;;;;;;;1.40;0.70;;;;;;;;;;5054455;28;20388;-81
2022/08/01 13:04:51;;;;;;;1.35;0.70;;;;;;;;;;5061424;28;20732;-81
2022/08/01 13:07:17;;;;;;;0.52;0.52;;;;;;;;;;5065381;28;20412;-82
2022/08/01 13:09:50;;;;;;;1.30;0.80;;;;;;;;;;5053228;28;20384;-81
2022/08/01 13:12:16;;;;;;;1.10;0.75;;;;;;;;;;5043249;28;20393;-81
2022/08/01 13:14:42;;;;;;;1.00;0.70;;;;;;;;;;5054099;28;20389;-81
2022/08/01 13:17:08;;;;;;;1.17;0.70;;;;;;;;;;5051968;28;20475;-81
2022/08/01 13:19:44;;;;;;;0.85;0.68;;;;;;;;;;5055004;28;20393;-81
2022/08/01 13:22:10;;;;;;;0.50;0.50;;;;;;;;;;5054975;28;20395;-81
2022/08/01 13:24:36;;;;;;;0.83;0.50;;;;;;;;;;5062277;28;20511;-81
2022/08/01 13:27:03;;;;;;;1.90;0.63;;;;;;;;;;5060877;28;20448;-81
2022/08/01 13:29:33;;;;;;;0.75;0.57;;;;;;;;;;5067159;28;20804;-81
2022/08/01 13:32:00;;;;;;;0.82;0.50;;;;;;;;;;5072266;28;20386;-81
2022/08/01 13:34:33;;;;;;;1.40;0.50;;;;;;;;;;5070497;28;20737;-81
2022/08/01 13:37:01;;;;;;;1.53;0.60;;;;;;;;;;5069400;28;20784;-81
2022/08/01 13:39:47;;;;;;;1.25;0.70;;;;;;;;;;5068282;28;20808;-80
2022/08/01 13:42:14;;;;;;;1.75;1.65;;;;;;;;;;5071745;28;20437;-80
2022/08/01 13:44:40;;;;;;;0.65;0.50;;;;;;;;;;5052284;28;20384;-82
2022/08/01 13:47:07;;;;;;;1.40;0.50;;;;;;;;;;5056928;28;20438;-82
2022/08/01 13:49:33;;;;;;;1.38;0.57;;;;;;;;;;5070521;28;20910;-82
2022/08/01 13:51:59;;;;;;;1.35;0.52;;;;;;;;;;5071905;28;20419;-81
2022/08/01 13:54:25;;;;;;;1.02;0.60;;;;;;;;;;5072054;28;20872;-81
2022/08/01 13:56:52;;;;;;;1.00;0.50;;;;;;;;;;5071783;28;20418;-82
2022/08/01 13:59:18;;;;;;;0.60;0.40;;;;;;;;;;5063619;28;20391;-82
2022/08/01 14:01:44;;;;;;;1.40;0.53;;;;;;;;;;5065177;28;20383;-82
2022/08/01 14:04:10;;;;;;;0.90;0.50;;;;;;;;;;5054723;28;20387;-82
2022/08/01 14:06:36;;;;;;;0.87;0.53;;;;;;;;;;5071849;28;20390;-82
2022/08/01 14:09:03;;;;;;;0.90;0.50;;;;;;;;;;5071827;28;20416;-81
2022/08/01 14:11:29;;;;;;;1.10;0.52;;;;;;;;;;5065868;28;20379;-81
2022/08/01 14:13:55;;;;;;;0.73;0.53;;;;;;;;;;5075838;28;20371;-81
2022/08/01 14:16:21;;;;;;;1.17;0.60;;;;;;;;;;5074199;28;20759;-81
2022/08/01 14:18:47;;;;;;;1.20;0.60;;;;;;;;;;5063261;28;20401;-81
2022/08/01 14:21:14;;;;;;;1.55;0.80;;;;;;;;;;5067220;28;20446;-80
2022/08/01 14:23:41;;;;;;;1.15;0.70;;;;;;;;;;5055533;28;20905;-79
2022/08/01 14:26:08;;;;;;;3.70;1.10;;;;;;;;;;5063375;28;20807;-79
2022/08/01 14:28:34;;;;;;;1.80;0.70;;;;;;;;;;5058647;28;20447;-79
2022/08/01 14:31:00;;;;;;;2.37;0.70;;;;;;;;;;5055064;28;20415;-79
2022/08/01 14:33:26;;;;;;;1.40;0.73;;;;;;;;;;5057300;28;20389;-79
2022/08/01 14:35:55;;;;;;;1.35;0.80;;;;;;;;;;5055456;28;20392;-79
2022/08/01 14:38:21;;;;;;;0.93;0.80;;;;;;;;;;5055622;28;20415;-80
2022/08/01 14:40:50;;;;;;;1.50;1.02;;;;;;;;;;5054553;28;20854;-80
2022/08/01 14:43:16;;;;;;;1.15;0.70;;;;;;;;;;5056568;28;20380;-80
2022/08/01 14:45:42;;;;;;;0.80;0.70;;;;;;;;;;5075082;28;20470;-80
2022/08/01 14:48:08;;;;;;;1.00;0.90;;;;;;;;;;5058655;28;20832;-80
2022/08/01 14:50:34;;;;;;;1.40;0.90;;;;;;;;;;5060497;28;20375;-80